sensor_id;sensor_type;location;lat;lon;timestamp;P1;durP1;ratioP1;P2;durP2;ratioP2
7336;SDS011;54510;42.016;23.098;2023-07-09T00:01:46;10.68;;;3.75;;
7336;SDS011;54510;42.016;23.098;2023-07-09T00:04:11;6.25;;;3.25;;
7336;SDS011;54510;42.016;23.098;2023-07-09T00:06:37;7.07;;;4.25;;
7336;SDS011;54510;42.016;23.098;2023-07-09T00:09:04;5.85;;;3.80;;
7336;SDS011;54510;42.016;23.098;2023-07-09T00:11:30;8.32;;;4.40;;
7336;SDS011;54510;42.016;23.098;2023-07-09T00:13:56;9.00;;;3.17;;
7336;SDS011;54510;42.016;23.098;2023-07-09T00:16:23;6.60;;;3.95;;
7336;SDS011;54510;42.016;23.098;2023-07-09T00:18:49;6.25;;;3.20;;
7336;SDS011;54510;42.016;23.098;2023-07-09T00:21:16;6.80;;;3.75;;
7336;SDS011;54510;42.016;23.098;2023-07-09T00:23:45;5.45;;;3.88;;
7336;SDS011;54510;42.016;23.098;2023-07-09T00:26:14;5.35;;;3.25;;
7336;SDS011;54510;42.016;23.098;2023-07-09T00:28:41;5.28;;;3.05;;
7336;SDS011;54510;42.016;23.098;2023-07-09T00:31:10;5.95;;;3.55;;
7336;SDS011;54510;42.016;23.098;2023-07-09T00:33:38;8.13;;;3.65;;
7336;SDS011;54510;42.016;23.098;2023-07-09T00:36:04;6.55;;;3.67;;
7336;SDS011;54510;42.016;23.098;2023-07-09T00:38:39;6.93;;;3.80;;
7336;SDS011;54510;42.016;23.098;2023-07-09T00:41:08;6.35;;;4.28;;
7336;SDS011;54510;42.016;23.098;2023-07-09T00:43:43;6.50;;;3.95;;
7336;SDS011;54510;42.016;23.098;2023-07-09T00:49:04;6.53;;;4.78;;
7336;SDS011;54510;42.016;23.098;2023-07-09T00:51:39;6.60;;;3.58;;
7336;SDS011;54510;42.016;23.098;2023-07-09T00:54:28;5.75;;;3.58;;
7336;SDS011;54510;42.016;23.098;2023-07-09T00:56:57;5.88;;;3.45;;
7336;SDS011;54510;42.016;23.098;2023-07-09T00:59:28;5.60;;;3.60;;
7336;SDS011;54510;42.016;23.098;2023-07-09T01:01:56;5.65;;;4.18;;
7336;SDS011;54510;42.016;23.098;2023-07-09T01:04:24;5.60;;;3.50;;
7336;SDS011;54510;42.016;23.098;2023-07-09T01:06:51;6.93;;;4.38;;
7336;SDS011;54510;42.016;23.098;2023-07-09T01:09:20;5.28;;;3.25;;
7336;SDS011;54510;42.016;23.098;2023-07-09T01:11:46;4.45;;;3.20;;
7336;SDS011;54510;42.016;23.098;2023-07-09T01:14:13;7.80;;;4.53;;
7336;SDS011;54510;42.016;23.098;2023-07-09T01:16:52;6.95;;;3.95;;
7336;SDS011;54510;42.016;23.098;2023-07-09T01:19:36;4.47;;;3.15;;
7336;SDS011;54510;42.016;23.098;2023-07-09T01:22:08;5.45;;;3.20;;
7336;SDS011;54510;42.016;23.098;2023-07-09T01:27:39;5.63;;;3.80;;
7336;SDS011;54510;42.016;23.098;2023-07-09T01:30:08;5.65;;;4.00;;
7336;SDS011;54510;42.016;23.098;2023-07-09T01:32:40;8.98;;;4.15;;
7336;SDS011;54510;42.016;23.098;2023-07-09T01:35:10;5.32;;;3.33;;
7336;SDS011;54510;42.016;23.098;2023-07-09T01:37:36;5.55;;;3.80;;
7336;SDS011;54510;42.016;23.098;2023-07-09T01:40:03;5.25;;;3.65;;
7336;SDS011;54510;42.016;23.098;2023-07-09T01:42:30;7.63;;;4.15;;
7336;SDS011;54510;42.016;23.098;2023-07-09T01:44:56;5.75;;;3.78;;
7336;SDS011;54510;42.016;23.098;2023-07-09T01:47:23;9.52;;;3.88;;
7336;SDS011;54510;42.016;23.098;2023-07-09T01:49:49;4.97;;;3.40;;
7336;SDS011;54510;42.016;23.098;2023-07-09T01:52:15;6.10;;;3.83;;
7336;SDS011;54510;42.016;23.098;2023-07-09T01:54:44;5.80;;;4.22;;
7336;SDS011;54510;42.016;23.098;2023-07-09T01:57:19;5.15;;;3.25;;
7336;SDS011;54510;42.016;23.098;2023-07-09T01:59:52;7.40;;;4.45;;
7336;SDS011;54510;42.016;23.098;2023-07-09T02:02:20;8.18;;;4.15;;
7336;SDS011;54510;42.016;23.098;2023-07-09T02:04:49;5.88;;;3.67;;
7336;SDS011;54510;42.016;23.098;2023-07-09T02:07:17;8.27;;;3.63;;
7336;SDS011;54510;42.016;23.098;2023-07-09T02:09:44;5.50;;;3.80;;
7336;SDS011;54510;42.016;23.098;2023-07-09T02:12:10;6.78;;;4.38;;
7336;SDS011;54510;42.016;23.098;2023-07-09T02:14:37;7.03;;;4.18;;
7336;SDS011;54510;42.016;23.098;2023-07-09T02:17:03;4.80;;;3.70;;
7336;SDS011;54510;42.016;23.098;2023-07-09T02:19:29;6.75;;;4.07;;
7336;SDS011;54510;42.016;23.098;2023-07-09T02:21:55;6.20;;;3.60;;
7336;SDS011;54510;42.016;23.098;2023-07-09T02:24:21;6.20;;;3.95;;
7336;SDS011;54510;42.016;23.098;2023-07-09T02:26:51;6.28;;;3.90;;
7336;SDS011;54510;42.016;23.098;2023-07-09T02:29:16;5.55;;;3.63;;
7336;SDS011;54510;42.016;23.098;2023-07-09T02:31:43;6.90;;;3.95;;
7336;SDS011;54510;42.016;23.098;2023-07-09T02:34:09;12.68;;;4.63;;
7336;SDS011;54510;42.016;23.098;2023-07-09T02:36:34;8.68;;;4.20;;
7336;SDS011;54510;42.016;23.098;2023-07-09T02:39:00;10.23;;;3.78;;
7336;SDS011;54510;42.016;23.098;2023-07-09T02:41:25;6.38;;;3.85;;
7336;SDS011;54510;42.016;23.098;2023-07-09T02:43:51;7.43;;;3.95;;
7336;SDS011;54510;42.016;23.098;2023-07-09T02:46:16;5.20;;;3.90;;
7336;SDS011;54510;42.016;23.098;2023-07-09T02:48:41;6.13;;;3.78;;
7336;SDS011;54510;42.016;23.098;2023-07-09T02:51:07;5.68;;;3.58;;
7336;SDS011;54510;42.016;23.098;2023-07-09T02:53:32;6.32;;;3.78;;
7336;SDS011;54510;42.016;23.098;2023-07-09T02:55:57;7.90;;;3.45;;
7336;SDS011;54510;42.016;23.098;2023-07-09T02:58:23;7.03;;;4.03;;
7336;SDS011;54510;42.016;23.098;2023-07-09T03:00:49;7.75;;;4.03;;
7336;SDS011;54510;42.016;23.098;2023-07-09T03:03:18;5.40;;;3.58;;
7336;SDS011;54510;42.016;23.098;2023-07-09T03:05:44;8.02;;;4.00;;
7336;SDS011;54510;42.016;23.098;2023-07-09T03:08:11;6.45;;;3.95;;
7336;SDS011;54510;42.016;23.098;2023-07-09T03:10:36;8.30;;;3.92;;
7336;SDS011;54510;42.016;23.098;2023-07-09T03:13:02;6.93;;;3.90;;
7336;SDS011;54510;42.016;23.098;2023-07-09T03:15:28;5.18;;;3.50;;
7336;SDS011;54510;42.016;23.098;2023-07-09T03:17:53;6.43;;;3.83;;
7336;SDS011;54510;42.016;23.098;2023-07-09T03:20:18;8.52;;;4.15;;
7336;SDS011;54510;42.016;23.098;2023-07-09T03:22:44;7.03;;;3.63;;
7336;SDS011;54510;42.016;23.098;2023-07-09T03:25:09;6.43;;;3.95;;
7336;SDS011;54510;42.016;23.098;2023-07-09T03:27:34;7.38;;;4.32;;
7336;SDS011;54510;42.016;23.098;2023-07-09T03:30:00;4.95;;;3.83;;
7336;SDS011;54510;42.016;23.098;2023-07-09T03:32:25;9.35;;;3.72;;
7336;SDS011;54510;42.016;23.098;2023-07-09T03:34:51;5.43;;;3.72;;
7336;SDS011;54510;42.016;23.098;2023-07-09T03:37:18;5.25;;;3.67;;
7336;SDS011;54510;42.016;23.098;2023-07-09T03:39:45;8.70;;;3.85;;
7336;SDS011;54510;42.016;23.098;2023-07-09T03:42:10;5.88;;;3.58;;
7336;SDS011;54510;42.016;23.098;2023-07-09T03:44:36;5.40;;;3.63;;
7336;SDS011;54510;42.016;23.098;2023-07-09T03:47:01;5.43;;;4.00;;
7336;SDS011;54510;42.016;23.098;2023-07-09T03:49:27;7.75;;;3.85;;
7336;SDS011;54510;42.016;23.098;2023-07-09T03:51:52;8.77;;;4.43;;
7336;SDS011;54510;42.016;23.098;2023-07-09T03:54:17;5.93;;;3.60;;
7336;SDS011;54510;42.016;23.098;2023-07-09T03:56:43;6.20;;;4.30;;
7336;SDS011;54510;42.016;23.098;2023-07-09T03:59:09;8.43;;;3.85;;
7336;SDS011;54510;42.016;23.098;2023-07-09T04:01:34;7.10;;;4.00;;
7336;SDS011;54510;42.016;23.098;2023-07-09T04:04:00;5.95;;;3.70;;
7336;SDS011;54510;42.016;23.098;2023-07-09T04:06:25;7.55;;;3.67;;
7336;SDS011;54510;42.016;23.098;2023-07-09T04:08:51;8.18;;;4.32;;
7336;SDS011;54510;42.016;23.098;2023-07-09T04:11:16;6.70;;;4.00;;
7336;SDS011;54510;42.016;23.098;2023-07-09T04:13:41;5.82;;;3.63;;
7336;SDS011;54510;42.016;23.098;2023-07-09T04:16:07;9.80;;;4.03;;
7336;SDS011;54510;42.016;23.098;2023-07-09T04:18:32;5.13;;;3.63;;
7336;SDS011;54510;42.016;23.098;2023-07-09T04:20:58;5.35;;;3.25;;
7336;SDS011;54510;42.016;23.098;2023-07-09T04:23:23;8.25;;;3.53;;
7336;SDS011;54510;42.016;23.098;2023-07-09T04:25:49;5.03;;;3.42;;
7336;SDS011;54510;42.016;23.098;2023-07-09T04:28:14;5.18;;;3.35;;
7336;SDS011;54510;42.016;23.098;2023-07-09T04:30:45;5.78;;;3.80;;
7336;SDS011;54510;42.016;23.098;2023-07-09T04:33:13;6.15;;;3.72;;
7336;SDS011;54510;42.016;23.098;2023-07-09T04:35:38;10.27;;;4.57;;
7336;SDS011;54510;42.016;23.098;2023-07-09T04:38:03;7.10;;;3.70;;
7336;SDS011;54510;42.016;23.098;2023-07-09T04:40:29;4.97;;;3.17;;
7336;SDS011;54510;42.016;23.098;2023-07-09T04:42:54;7.82;;;3.60;;
7336;SDS011;54510;42.016;23.098;2023-07-09T04:45:19;8.13;;;3.67;;
7336;SDS011;54510;42.016;23.098;2023-07-09T04:47:45;5.50;;;3.47;;
7336;SDS011;54510;42.016;23.098;2023-07-09T04:50:10;6.47;;;3.63;;
7336;SDS011;54510;42.016;23.098;2023-07-09T04:52:36;7.78;;;4.25;;
7336;SDS011;54510;42.016;23.098;2023-07-09T04:55:02;7.57;;;4.30;;
7336;SDS011;54510;42.016;23.098;2023-07-09T04:57:28;7.10;;;4.15;;
7336;SDS011;54510;42.016;23.098;2023-07-09T04:59:53;5.22;;;3.55;;
7336;SDS011;54510;42.016;23.098;2023-07-09T05:02:19;5.68;;;3.60;;
7336;SDS011;54510;42.016;23.098;2023-07-09T05:04:44;8.38;;;3.13;;
7336;SDS011;54510;42.016;23.098;2023-07-09T05:07:10;4.57;;;3.50;;
7336;SDS011;54510;42.016;23.098;2023-07-09T05:09:35;8.48;;;4.10;;
7336;SDS011;54510;42.016;23.098;2023-07-09T05:12:01;7.20;;;3.47;;
7336;SDS011;54510;42.016;23.098;2023-07-09T05:14:27;4.93;;;3.45;;
7336;SDS011;54510;42.016;23.098;2023-07-09T05:16:52;5.10;;;3.33;;
7336;SDS011;54510;42.016;23.098;2023-07-09T05:19:18;5.82;;;3.90;;
7336;SDS011;54510;42.016;23.098;2023-07-09T05:21:43;4.28;;;3.22;;
7336;SDS011;54510;42.016;23.098;2023-07-09T05:24:09;8.32;;;3.97;;
7336;SDS011;54510;42.016;23.098;2023-07-09T05:26:34;7.80;;;5.18;;
7336;SDS011;54510;42.016;23.098;2023-07-09T05:29:00;14.05;;;8.35;;
7336;SDS011;54510;42.016;23.098;2023-07-09T05:31:26;25.02;;;18.33;;
7336;SDS011;54510;42.016;23.098;2023-07-09T05:33:52;14.65;;;10.95;;
7336;SDS011;54510;42.016;23.098;2023-07-09T05:36:17;17.70;;;12.70;;
7336;SDS011;54510;42.016;23.098;2023-07-09T05:38:45;10.32;;;4.53;;
7336;SDS011;54510;42.016;23.098;2023-07-09T05:41:15;7.05;;;3.30;;
7336;SDS011;54510;42.016;23.098;2023-07-09T05:43:42;6.10;;;4.13;;
7336;SDS011;54510;42.016;23.098;2023-07-09T05:46:09;5.38;;;3.90;;
7336;SDS011;54510;42.016;23.098;2023-07-09T05:48:35;7.47;;;4.60;;
7336;SDS011;54510;42.016;23.098;2023-07-09T05:51:00;6.70;;;3.95;;
7336;SDS011;54510;42.016;23.098;2023-07-09T05:53:25;7.95;;;3.78;;
7336;SDS011;54510;42.016;23.098;2023-07-09T05:55:54;5.53;;;3.47;;
7336;SDS011;54510;42.016;23.098;2023-07-09T05:58:20;5.63;;;3.45;;
7336;SDS011;54510;42.016;23.098;2023-07-09T06:00:48;7.07;;;4.03;;
7336;SDS011;54510;42.016;23.098;2023-07-09T06:03:17;5.43;;;3.70;;
7336;SDS011;54510;42.016;23.098;2023-07-09T06:05:43;7.63;;;3.63;;
7336;SDS011;54510;42.016;23.098;2023-07-09T06:08:08;7.35;;;3.50;;
7336;SDS011;54510;42.016;23.098;2023-07-09T06:10:33;6.65;;;3.80;;
7336;SDS011;54510;42.016;23.098;2023-07-09T06:12:59;6.65;;;3.50;;
7336;SDS011;54510;42.016;23.098;2023-07-09T06:15:25;6.88;;;3.72;;
7336;SDS011;54510;42.016;23.098;2023-07-09T06:17:51;8.10;;;3.85;;
7336;SDS011;54510;42.016;23.098;2023-07-09T06:20:16;8.45;;;4.35;;
7336;SDS011;54510;42.016;23.098;2023-07-09T06:22:41;6.18;;;3.80;;
7336;SDS011;54510;42.016;23.098;2023-07-09T06:25:07;7.55;;;4.28;;
7336;SDS011;54510;42.016;23.098;2023-07-09T06:27:33;6.25;;;3.72;;
7336;SDS011;54510;42.016;23.098;2023-07-09T06:29:58;5.75;;;3.78;;
7336;SDS011;54510;42.016;23.098;2023-07-09T06:32:23;7.38;;;4.00;;
7336;SDS011;54510;42.016;23.098;2023-07-09T06:34:49;6.63;;;3.33;;
7336;SDS011;54510;42.016;23.098;2023-07-09T06:37:14;6.13;;;3.67;;
7336;SDS011;54510;42.016;23.098;2023-07-09T06:39:40;8.00;;;4.05;;
7336;SDS011;54510;42.016;23.098;2023-07-09T06:42:05;7.10;;;3.75;;
7336;SDS011;54510;42.016;23.098;2023-07-09T06:44:31;4.80;;;3.15;;
7336;SDS011;54510;42.016;23.098;2023-07-09T06:46:56;5.82;;;3.85;;
7336;SDS011;54510;42.016;23.098;2023-07-09T06:49:21;4.63;;;3.30;;
7336;SDS011;54510;42.016;23.098;2023-07-09T06:51:47;6.40;;;3.92;;
7336;SDS011;54510;42.016;23.098;2023-07-09T06:54:12;9.00;;;3.70;;
7336;SDS011;54510;42.016;23.098;2023-07-09T06:56:40;8.98;;;3.60;;
7336;SDS011;54510;42.016;23.098;2023-07-09T06:59:06;4.78;;;3.38;;
7336;SDS011;54510;42.016;23.098;2023-07-09T07:01:31;8.38;;;3.97;;
7336;SDS011;54510;42.016;23.098;2023-07-09T07:03:57;11.45;;;6.43;;
7336;SDS011;54510;42.016;23.098;2023-07-09T07:06:23;7.53;;;4.22;;
7336;SDS011;54510;42.016;23.098;2023-07-09T07:08:48;11.55;;;4.00;;
7336;SDS011;54510;42.016;23.098;2023-07-09T07:11:14;9.95;;;3.88;;
7336;SDS011;54510;42.016;23.098;2023-07-09T07:13:40;8.90;;;3.47;;
7336;SDS011;54510;42.016;23.098;2023-07-09T07:16:07;9.40;;;3.78;;
7336;SDS011;54510;42.016;23.098;2023-07-09T07:18:34;5.60;;;3.72;;
7336;SDS011;54510;42.016;23.098;2023-07-09T07:21:00;6.68;;;3.53;;
7336;SDS011;54510;42.016;23.098;2023-07-09T07:23:25;5.55;;;3.33;;
7336;SDS011;54510;42.016;23.098;2023-07-09T07:25:51;6.35;;;3.10;;
7336;SDS011;54510;42.016;23.098;2023-07-09T07:28:17;6.00;;;3.55;;
7336;SDS011;54510;42.016;23.098;2023-07-09T07:30:43;12.02;;;3.92;;
7336;SDS011;54510;42.016;23.098;2023-07-09T07:33:08;6.05;;;2.60;;
7336;SDS011;54510;42.016;23.098;2023-07-09T07:35:34;4.47;;;3.40;;
7336;SDS011;54510;42.016;23.098;2023-07-09T07:38:00;9.32;;;3.80;;
7336;SDS011;54510;42.016;23.098;2023-07-09T07:40:25;8.23;;;3.63;;
7336;SDS011;54510;42.016;23.098;2023-07-09T07:42:51;7.35;;;3.20;;
7336;SDS011;54510;42.016;23.098;2023-07-09T07:45:16;8.32;;;2.97;;
7336;SDS011;54510;42.016;23.098;2023-07-09T07:47:42;6.05;;;2.95;;
7336;SDS011;54510;42.016;23.098;2023-07-09T07:50:08;5.68;;;2.95;;
7336;SDS011;54510;42.016;23.098;2023-07-09T07:52:35;6.55;;;3.95;;
7336;SDS011;54510;42.016;23.098;2023-07-09T07:55:04;7.85;;;3.70;;
7336;SDS011;54510;42.016;23.098;2023-07-09T07:57:30;5.97;;;2.80;;
7336;SDS011;54510;42.016;23.098;2023-07-09T07:59:55;5.95;;;3.05;;
7336;SDS011;54510;42.016;23.098;2023-07-09T08:02:23;6.75;;;2.88;;
7336;SDS011;54510;42.016;23.098;2023-07-09T08:04:49;6.00;;;2.53;;
7336;SDS011;54510;42.016;23.098;2023-07-09T08:07:16;7.30;;;2.92;;
7336;SDS011;54510;42.016;23.098;2023-07-09T08:09:43;5.40;;;2.63;;
7336;SDS011;54510;42.016;23.098;2023-07-09T08:12:09;9.20;;;3.17;;
7336;SDS011;54510;42.016;23.098;2023-07-09T08:14:37;5.47;;;2.30;;
7336;SDS011;54510;42.016;23.098;2023-07-09T08:17:03;7.78;;;2.92;;
7336;SDS011;54510;42.016;23.098;2023-07-09T08:19:29;9.45;;;3.13;;
7336;SDS011;54510;42.016;23.098;2023-07-09T08:21:55;5.05;;;2.55;;
7336;SDS011;54510;42.016;23.098;2023-07-09T08:24:21;4.65;;;2.63;;
7336;SDS011;54510;42.016;23.098;2023-07-09T08:26:46;10.25;;;3.50;;
7336;SDS011;54510;42.016;23.098;2023-07-09T08:29:11;4.63;;;2.33;;
7336;SDS011;54510;42.016;23.098;2023-07-09T08:31:37;5.75;;;2.38;;
7336;SDS011;54510;42.016;23.098;2023-07-09T08:34:02;3.67;;;1.98;;
7336;SDS011;54510;42.016;23.098;2023-07-09T08:36:30;4.25;;;2.05;;
7336;SDS011;54510;42.016;23.098;2023-07-09T08:38:56;4.88;;;2.13;;
7336;SDS011;54510;42.016;23.098;2023-07-09T08:41:39;7.38;;;2.40;;
7336;SDS011;54510;42.016;23.098;2023-07-09T08:47:09;5.78;;;2.20;;
7336;SDS011;54510;42.016;23.098;2023-07-09T08:49:58;3.67;;;2.00;;
7336;SDS011;54510;42.016;23.098;2023-07-09T08:52:29;5.35;;;1.90;;
7336;SDS011;54510;42.016;23.098;2023-07-09T08:54:55;2.88;;;1.77;;
7336;SDS011;54510;42.016;23.098;2023-07-09T08:57:25;5.65;;;2.60;;
7336;SDS011;54510;42.016;23.098;2023-07-09T08:59:57;8.02;;;2.47;;
7336;SDS011;54510;42.016;23.098;2023-07-09T09:02:34;4.93;;;2.10;;
7336;SDS011;54510;42.016;23.098;2023-07-09T09:05:04;5.07;;;2.35;;
7336;SDS011;54510;42.016;23.098;2023-07-09T09:07:42;5.35;;;2.20;;
7336;SDS011;54510;42.016;23.098;2023-07-09T09:10:17;5.90;;;2.22;;
7336;SDS011;54510;42.016;23.098;2023-07-09T09:15:23;4.55;;;2.30;;
7336;SDS011;54510;42.016;23.098;2023-07-09T09:17:52;4.38;;;2.47;;
7336;SDS011;54510;42.016;23.098;2023-07-09T09:20:21;6.95;;;2.28;;
7336;SDS011;54510;42.016;23.098;2023-07-09T09:22:48;3.67;;;2.15;;
7336;SDS011;54510;42.016;23.098;2023-07-09T09:25:33;3.70;;;2.28;;
7336;SDS011;54510;42.016;23.098;2023-07-09T09:28:02;4.35;;;2.10;;
7336;SDS011;54510;42.016;23.098;2023-07-09T09:30:28;3.92;;;1.92;;
7336;SDS011;54510;42.016;23.098;2023-07-09T09:33:02;4.30;;;2.65;;
7336;SDS011;54510;42.016;23.098;2023-07-09T09:37:59;4.85;;;2.17;;
7336;SDS011;54510;42.016;23.098;2023-07-09T09:40:27;5.13;;;2.03;;
7336;SDS011;54510;42.016;23.098;2023-07-09T09:42:56;5.35;;;2.35;;
7336;SDS011;54510;42.016;23.098;2023-07-09T09:45:26;5.90;;;2.75;;
7336;SDS011;54510;42.016;23.098;2023-07-09T09:48:01;3.03;;;1.73;;
7336;SDS011;54510;42.016;23.098;2023-07-09T09:50:35;9.20;;;3.05;;
7336;SDS011;54510;42.016;23.098;2023-07-09T09:53:00;4.70;;;2.33;;
7336;SDS011;54510;42.016;23.098;2023-07-09T09:55:30;2.80;;;2.05;;
7336;SDS011;54510;42.016;23.098;2023-07-09T09:57:58;3.97;;;2.38;;
7336;SDS011;54510;42.016;23.098;2023-07-09T10:00:26;4.90;;;2.50;;
7336;SDS011;54510;42.016;23.098;2023-07-09T10:02:58;3.67;;;2.38;;
7336;SDS011;54510;42.016;23.098;2023-07-09T10:05:33;3.63;;;2.20;;
7336;SDS011;54510;42.016;23.098;2023-07-09T10:10:40;3.75;;;2.20;;
7336;SDS011;54510;42.016;23.098;2023-07-09T10:13:13;3.53;;;2.42;;
7336;SDS011;54510;42.016;23.098;2023-07-09T10:16:10;6.75;;;2.88;;
7336;SDS011;54510;42.016;23.098;2023-07-09T10:18:59;4.45;;;2.40;;
7336;SDS011;54510;42.016;23.098;2023-07-09T10:21:47;3.23;;;1.83;;
7336;SDS011;54510;42.016;23.098;2023-07-09T10:27:03;4.43;;;2.10;;
7336;SDS011;54510;42.016;23.098;2023-07-09T10:35:01;5.20;;;2.30;;
7336;SDS011;54510;42.016;23.098;2023-07-09T10:40:14;6.05;;;2.22;;
7336;SDS011;54510;42.016;23.098;2023-07-09T10:42:46;6.18;;;2.65;;
7336;SDS011;54510;42.016;23.098;2023-07-09T10:48:33;4.30;;;2.40;;
7336;SDS011;54510;42.016;23.098;2023-07-09T10:51:03;3.72;;;2.25;;
7336;SDS011;54510;42.016;23.098;2023-07-09T10:53:40;6.47;;;2.55;;
7336;SDS011;54510;42.016;23.098;2023-07-09T10:56:10;4.05;;;2.20;;
7336;SDS011;54510;42.016;23.098;2023-07-09T11:01:46;4.15;;;2.25;;
7336;SDS011;54510;42.016;23.098;2023-07-09T11:07:29;4.30;;;2.45;;
7336;SDS011;54510;42.016;23.098;2023-07-09T11:09:58;5.55;;;2.80;;
7336;SDS011;54510;42.016;23.098;2023-07-09T11:12:31;5.72;;;2.67;;
7336;SDS011;54510;42.016;23.098;2023-07-09T11:15:05;6.82;;;2.35;;
7336;SDS011;54510;42.016;23.098;2023-07-09T11:17:37;3.40;;;2.30;;
7336;SDS011;54510;42.016;23.098;2023-07-09T11:20:16;3.08;;;2.17;;
7336;SDS011;54510;42.016;23.098;2023-07-09T11:22:50;5.47;;;2.08;;
7336;SDS011;54510;42.016;23.098;2023-07-09T11:25:30;5.03;;;2.00;;
7336;SDS011;54510;42.016;23.098;2023-07-09T11:28:07;4.32;;;1.83;;
7336;SDS011;54510;42.016;23.098;2023-07-09T11:30:44;4.60;;;2.08;;
7336;SDS011;54510;42.016;23.098;2023-07-09T11:33:16;3.97;;;2.20;;
7336;SDS011;54510;42.016;23.098;2023-07-09T11:35:47;6.05;;;2.47;;
7336;SDS011;54510;42.016;23.098;2023-07-09T11:38:19;4.65;;;2.00;;
7336;SDS011;54510;42.016;23.098;2023-07-09T11:40:47;4.05;;;2.17;;
7336;SDS011;54510;42.016;23.098;2023-07-09T11:43:27;11.25;;;2.10;;
7336;SDS011;54510;42.016;23.098;2023-07-09T11:46:06;3.75;;;2.33;;
7336;SDS011;54510;42.016;23.098;2023-07-09T11:48:38;4.57;;;2.53;;
7336;SDS011;54510;42.016;23.098;2023-07-09T11:51:08;4.60;;;2.60;;
7336;SDS011;54510;42.016;23.098;2023-07-09T11:53:55;5.15;;;2.08;;
7336;SDS011;54510;42.016;23.098;2023-07-09T11:56:21;3.03;;;1.80;;
7336;SDS011;54510;42.016;23.098;2023-07-09T11:58:56;3.80;;;2.42;;
7336;SDS011;54510;42.016;23.098;2023-07-09T12:01:31;6.10;;;2.33;;
7336;SDS011;54510;42.016;23.098;2023-07-09T12:04:01;7.25;;;1.73;;
7336;SDS011;54510;42.016;23.098;2023-07-09T12:06:28;2.78;;;1.67;;
7336;SDS011;54510;42.016;23.098;2023-07-09T12:08:56;4.72;;;2.05;;
7336;SDS011;54510;42.016;23.098;2023-07-09T12:11:24;5.13;;;2.28;;
7336;SDS011;54510;42.016;23.098;2023-07-09T12:14:13;3.28;;;1.83;;
7336;SDS011;54510;42.016;23.098;2023-07-09T12:16:44;3.83;;;1.80;;
7336;SDS011;54510;42.016;23.098;2023-07-09T12:19:12;4.90;;;1.60;;
7336;SDS011;54510;42.016;23.098;2023-07-09T12:21:41;3.60;;;2.00;;
7336;SDS011;54510;42.016;23.098;2023-07-09T12:24:24;4.07;;;1.90;;
7336;SDS011;54510;42.016;23.098;2023-07-09T12:27:00;3.72;;;1.90;;
7336;SDS011;54510;42.016;23.098;2023-07-09T12:29:28;3.25;;;1.70;;
7336;SDS011;54510;42.016;23.098;2023-07-09T12:31:58;4.18;;;1.95;;
7336;SDS011;54510;42.016;23.098;2023-07-09T12:34:24;3.60;;;1.85;;
7336;SDS011;54510;42.016;23.098;2023-07-09T12:36:51;2.03;;;1.38;;
7336;SDS011;54510;42.016;23.098;2023-07-09T12:39:21;2.40;;;1.55;;
7336;SDS011;54510;42.016;23.098;2023-07-09T12:41:50;2.17;;;1.50;;
7336;SDS011;54510;42.016;23.098;2023-07-09T12:44:21;2.30;;;1.33;;
7336;SDS011;54510;42.016;23.098;2023-07-09T12:46:48;4.20;;;1.92;;
7336;SDS011;54510;42.016;23.098;2023-07-09T12:49:22;5.45;;;2.05;;
7336;SDS011;54510;42.016;23.098;2023-07-09T12:51:56;3.08;;;1.63;;
7336;SDS011;54510;42.016;23.098;2023-07-09T12:54:23;3.22;;;1.67;;
7336;SDS011;54510;42.016;23.098;2023-07-09T12:56:52;5.30;;;1.33;;
7336;SDS011;54510;42.016;23.098;2023-07-09T13:01:49;3.17;;;1.75;;
7336;SDS011;54510;42.016;23.098;2023-07-09T13:04:14;4.00;;;1.55;;
7336;SDS011;54510;42.016;23.098;2023-07-09T13:06:40;3.22;;;1.80;;
7336;SDS011;54510;42.016;23.098;2023-07-09T13:09:13;2.88;;;1.83;;
7336;SDS011;54510;42.016;23.098;2023-07-09T13:14:17;3.63;;;1.98;;
7336;SDS011;54510;42.016;23.098;2023-07-09T13:16:44;7.60;;;2.00;;
7336;SDS011;54510;42.016;23.098;2023-07-09T13:19:10;3.05;;;1.85;;
7336;SDS011;54510;42.016;23.098;2023-07-09T13:21:35;3.58;;;1.90;;
7336;SDS011;54510;42.016;23.098;2023-07-09T13:24:23;2.83;;;1.58;;
7336;SDS011;54510;42.016;23.098;2023-07-09T13:26:51;4.35;;;2.10;;
7336;SDS011;54510;42.016;23.098;2023-07-09T13:29:18;3.05;;;1.70;;
7336;SDS011;54510;42.016;23.098;2023-07-09T13:31:45;4.93;;;1.83;;
7336;SDS011;54510;42.016;23.098;2023-07-09T13:34:24;3.88;;;1.73;;
7336;SDS011;54510;42.016;23.098;2023-07-09T13:36:52;4.00;;;2.00;;
7336;SDS011;54510;42.016;23.098;2023-07-09T13:39:19;3.20;;;2.05;;
7336;SDS011;54510;42.016;23.098;2023-07-09T13:41:45;2.40;;;1.50;;
7336;SDS011;54510;42.016;23.098;2023-07-09T13:44:14;2.40;;;1.55;;
7336;SDS011;54510;42.016;23.098;2023-07-09T13:46:44;2.47;;;1.98;;
7336;SDS011;54510;42.016;23.098;2023-07-09T13:49:11;2.17;;;1.20;;
7336;SDS011;54510;42.016;23.098;2023-07-09T13:51:39;3.17;;;1.80;;
7336;SDS011;54510;42.016;23.098;2023-07-09T13:54:13;5.15;;;1.70;;
7336;SDS011;54510;42.016;23.098;2023-07-09T13:56:39;8.05;;;1.83;;
7336;SDS011;54510;42.016;23.098;2023-07-09T13:59:08;3.60;;;1.70;;
7336;SDS011;54510;42.016;23.098;2023-07-09T14:01:37;5.65;;;1.83;;
7336;SDS011;54510;42.016;23.098;2023-07-09T14:04:03;2.50;;;1.60;;
7336;SDS011;54510;42.016;23.098;2023-07-09T14:06:29;3.00;;;1.80;;
7336;SDS011;54510;42.016;23.098;2023-07-09T14:08:54;3.92;;;1.55;;
7336;SDS011;54510;42.016;23.098;2023-07-09T14:11:20;3.28;;;1.40;;
7336;SDS011;54510;42.016;23.098;2023-07-09T14:13:46;3.22;;;1.75;;
7336;SDS011;54510;42.016;23.098;2023-07-09T14:16:12;2.60;;;1.50;;
7336;SDS011;54510;42.016;23.098;2023-07-09T14:18:40;3.25;;;1.80;;
7336;SDS011;54510;42.016;23.098;2023-07-09T14:21:12;2.45;;;1.40;;
7336;SDS011;54510;42.016;23.098;2023-07-09T14:23:39;3.90;;;1.58;;
7336;SDS011;54510;42.016;23.098;2023-07-09T14:26:04;2.25;;;1.75;;
7336;SDS011;54510;42.016;23.098;2023-07-09T14:28:30;2.90;;;1.70;;
7336;SDS011;54510;42.016;23.098;2023-07-09T14:30:56;2.80;;;1.52;;
7336;SDS011;54510;42.016;23.098;2023-07-09T14:33:21;3.67;;;1.70;;
7336;SDS011;54510;42.016;23.098;2023-07-09T14:35:48;2.92;;;1.55;;
7336;SDS011;54510;42.016;23.098;2023-07-09T14:40:42;2.72;;;1.33;;
7336;SDS011;54510;42.016;23.098;2023-07-09T14:43:09;2.83;;;1.40;;
7336;SDS011;54510;42.016;23.098;2023-07-09T14:45:35;2.00;;;1.38;;
7336;SDS011;54510;42.016;23.098;2023-07-09T14:48:04;3.05;;;1.45;;
7336;SDS011;54510;42.016;23.098;2023-07-09T14:50:40;5.22;;;2.20;;
7336;SDS011;54510;42.016;23.098;2023-07-09T14:53:11;3.38;;;1.35;;
7336;SDS011;54510;42.016;23.098;2023-07-09T14:55:39;7.50;;;1.80;;
7336;SDS011;54510;42.016;23.098;2023-07-09T14:58:08;2.65;;;1.52;;
7336;SDS011;54510;42.016;23.098;2023-07-09T15:00:39;2.45;;;1.70;;
7336;SDS011;54510;42.016;23.098;2023-07-09T15:03:07;4.50;;;1.70;;
7336;SDS011;54510;42.016;23.098;2023-07-09T15:05:34;11.93;;;1.88;;
7336;SDS011;54510;42.016;23.098;2023-07-09T15:07:59;1.50;;;1.13;;
7336;SDS011;54510;42.016;23.098;2023-07-09T15:10:27;2.45;;;1.60;;
7336;SDS011;54510;42.016;23.098;2023-07-09T15:12:52;2.00;;;1.42;;
7336;SDS011;54510;42.016;23.098;2023-07-09T15:17:58;3.80;;;1.30;;
7336;SDS011;54510;42.016;23.098;2023-07-09T15:20:26;1.70;;;1.40;;
7336;SDS011;54510;42.016;23.098;2023-07-09T15:22:57;2.00;;;1.33;;
7336;SDS011;54510;42.016;23.098;2023-07-09T15:25:25;4.22;;;1.42;;
7336;SDS011;54510;42.016;23.098;2023-07-09T15:27:53;13.68;;;1.90;;
7336;SDS011;54510;42.016;23.098;2023-07-09T15:30:19;2.85;;;1.45;;
7336;SDS011;54510;42.016;23.098;2023-07-09T15:32:47;2.17;;;1.40;;
7336;SDS011;54510;42.016;23.098;2023-07-09T15:35:14;2.33;;;1.83;;
7336;SDS011;54510;42.016;23.098;2023-07-09T15:37:41;2.80;;;1.25;;
7336;SDS011;54510;42.016;23.098;2023-07-09T15:40:28;2.38;;;1.20;;
7336;SDS011;54510;42.016;23.098;2023-07-09T15:43:00;3.42;;;1.60;;